Time;durP1;ratioP1;P1;durP2;ratioP2;P2;SDS_P1;SDS_P2;PMS_P1;PMS_P2;Temp;Humidity;BMP_temperature;BMP_pressure;BME280_temperature;BME280_humidity;BME280_pressure;Samples;Min_cycle;Max_cycle;Signal;HPM_P1;HPM_P2
2023/03/26 00:00:39;;;;;;;10.65;1.83;;;10.40;99.90;;;9.52;100.00;100185.88;4152883;28;20033;-75
2023/03/26 00:02:40;;;;;;;10.77;1.73;;;10.40;99.90;;;9.27;100.00;100171.84;4154093;28;20030;-75
2023/03/26 00:04:41;;;;;;;19.30;3.15;;;10.20;99.90;;;9.25;100.00;100171.19;4152904;28;20446;-74
2023/03/26 00:06:42;;;;;;;13.93;2.55;;;10.20;99.90;;;9.48;100.00;100181.91;4153962;28;20034;-74
2023/03/26 00:08:44;;;;;;;16.40;2.22;;;10.20;99.90;;;9.37;100.00;100181.25;4152257;28;20026;-74
2023/03/26 00:10:46;;;;;;;12.20;2.88;;;10.20;99.90;;;9.50;100.00;100188.66;4153996;28;20472;-74
2023/03/26 00:12:47;;;;;;;12.70;2.67;;;10.30;99.90;;;9.43;100.00;100171.91;4152690;28;20041;-75
2023/03/26 00:14:48;;;;;;;15.68;3.28;;;10.30;99.90;;;9.47;100.00;100170.56;4153640;28;20034;-75
2023/03/26 00:16:49;;;;;;;10.68;2.63;;;10.40;99.90;;;9.61;100.00;100182.28;4153665;28;20045;-74
2023/03/26 00:18:50;;;;;;;17.00;3.10;;;10.40;99.90;;;9.63;100.00;100196.94;4153606;28;20025;-74
2023/03/26 00:20:51;;;;;;;18.25;3.95;;;10.40;99.90;;;9.58;100.00;100182.59;4152531;28;20030;-74
2023/03/26 00:22:54;;;;;;;15.95;2.65;;;10.40;99.90;;;9.48;100.00;100176.66;4152386;28;20049;-74
2023/03/26 00:24:56;;;;;;;16.83;2.78;;;10.40;99.90;;;9.51;100.00;100192.97;4151648;28;20033;-74
2023/03/26 00:26:58;;;;;;;16.55;3.33;;;10.40;99.90;;;9.40;100.00;100202.00;4153233;28;20497;-74
2023/03/26 00:28:59;;;;;;;19.05;4.57;;;10.30;99.90;;;9.36;100.00;100220.91;4151288;28;20478;-74
2023/03/26 00:31:04;;;;;;;20.10;4.85;;;10.20;99.90;;;9.24;100.00;100201.13;4153478;28;20076;-74
2023/03/26 00:33:06;;;;;;;22.13;3.30;;;10.20;99.90;;;9.22;100.00;100206.56;4152433;28;20060;-75
2023/03/26 00:35:08;;;;;;;22.88;4.57;;;10.10;99.90;;;9.35;100.00;100199.00;4168671;28;20032;-74
2023/03/26 00:37:13;;;;;;;21.92;3.70;;;10.10;99.90;;;9.46;100.00;100234.75;4153284;28;20092;-74
2023/03/26 00:39:14;;;;;;;17.13;3.47;;;10.10;99.90;;;9.51;100.00;100213.19;4153286;28;20026;-75
2023/03/26 00:41:21;;;;;;;17.83;2.88;;;10.30;99.90;;;9.46;100.00;100195.25;4153551;28;20034;-75
2023/03/26 00:43:22;;;;;;;21.25;4.00;;;10.30;99.90;;;9.45;100.00;100235.72;4153337;28;20018;-74
2023/03/26 00:45:23;;;;;;;23.20;3.55;;;10.30;99.90;;;9.49;100.00;100223.91;4135599;28;20113;-74
2023/03/26 00:47:26;;;;;;;21.42;3.78;;;10.20;99.90;;;9.33;100.00;100205.41;4149775;28;20060;-75
2023/03/26 00:49:29;;;;;;;16.05;3.80;;;10.20;99.90;;;9.27;100.00;100241.09;4144949;28;20034;-75
2023/03/26 00:51:32;;;;;;;24.52;4.47;;;10.10;99.90;;;9.12;100.00;100220.81;4153265;28;20022;-74
2023/03/26 00:53:33;;;;;;;26.25;4.07;;;10.00;99.90;;;9.17;100.00;100231.72;4151860;28;20124;-74
2023/03/26 00:55:34;;;;;;;19.10;3.28;;;10.00;99.90;;;9.13;100.00;100246.16;4152310;28;20126;-74
2023/03/26 00:57:36;;;;;;;20.42;2.88;;;10.00;99.90;;;9.24;100.00;100240.59;4153180;28;20065;-74
2023/03/26 00:59:38;;;;;;;18.75;2.88;;;9.90;99.90;;;9.07;100.00;100236.28;4153085;28;20075;-74
2023/03/26 01:01:39;;;;;;;15.63;3.67;;;9.90;99.90;;;8.87;100.00;100204.09;4152940;28;20037;-74
2023/03/26 01:03:43;;;;;;;17.35;3.83;;;9.80;99.90;;;8.77;100.00;100204.25;4152723;28;20054;-75
2023/03/26 01:06:10;;;;;;;18.05;3.03;;;9.70;99.90;;;9.07;100.00;100223.13;4153044;28;20037;-75
2023/03/26 01:08:25;;;;;;;22.08;3.70;;;9.80;99.90;;;8.96;100.00;100226.84;4150253;28;20098;-74
2023/03/26 01:10:26;;;;;;;17.55;2.53;;;9.70;99.90;;;9.04;100.00;100234.78;4151046;28;20413;-75
2023/03/26 01:12:32;;;;;;;18.42;3.55;;;9.70;99.90;;;8.91;100.00;100234.38;4146442;28;20018;-75
2023/03/26 01:14:34;;;;;;;26.38;5.15;;;9.70;99.90;;;8.73;100.00;100237.09;4151090;28;20061;-75
2023/03/26 01:16:46;;;;;;;17.50;2.65;;;9.60;99.90;;;8.91;100.00;100231.75;4149171;28;20026;-75
2023/03/26 01:18:47;;;;;;;17.10;3.65;;;9.60;99.90;;;8.89;100.00;100239.81;4152528;28;20036;-75
2023/03/26 01:20:51;;;;;;;18.48;3.47;;;9.60;99.90;;;8.85;100.00;100235.00;4150616;28;20555;-76
2023/03/26 01:23:01;;;;;;;25.07;4.70;;;9.60;99.90;;;9.08;100.00;100235.28;4150876;28;20109;-76
2023/03/26 01:25:02;;;;;;;20.42;4.38;;;9.70;99.90;;;8.68;100.00;100220.13;4141032;28;20030;-76
2023/03/26 01:27:25;;;;;;;21.33;4.32;;;9.60;99.90;;;8.68;100.00;100242.00;4128380;28;20035;-76
2023/03/26 01:29:32;;;;;;;20.70;3.92;;;9.60;99.90;;;8.65;100.00;100247.56;4139534;28;20489;-76
2023/03/26 01:31:46;;;;;;;19.38;3.80;;;9.50;99.90;;;8.54;100.00;100234.66;4151771;28;20018;-76
2023/03/26 01:34:32;;;;;;;21.95;3.92;;;9.40;99.90;;;8.48;100.00;100247.63;4152127;28;20398;-75
2023/03/26 01:37:03;;;;;;;;;;;9.40;99.90;;;8.46;100.00;100249.56;4150489;28;20041;-77
2023/03/26 01:39:24;;;;;;;18.75;4.22;;;9.30;99.90;;;8.52;100.00;100241.06;4148259;28;20335;-75
2023/03/26 01:41:46;;;;;;;19.52;5.35;;;9.30;99.90;;;8.47;100.00;100232.84;4150986;28;20100;-75
2023/03/26 01:43:57;;;;;;;24.58;4.38;;;9.30;99.90;;;8.47;100.00;100233.66;4150535;28;20033;-74
2023/03/26 01:46:06;;;;;;;25.50;4.95;;;9.30;99.90;;;8.38;100.00;100226.69;4151873;28;20038;-75
2023/03/26 01:48:07;;;;;;;27.83;6.53;;;9.20;99.90;;;8.18;100.00;100218.16;4149239;28;20026;-75
2023/03/26 01:50:09;;;;;;;24.48;4.55;;;9.20;99.90;;;8.21;100.00;100233.59;4151594;28;20034;-75
2023/03/26 01:52:19;;;;;;;26.42;5.72;;;9.10;99.90;;;8.20;100.00;100215.38;4151105;28;20096;-76
2023/03/26 01:54:26;;;;;;;27.70;4.78;;;9.00;99.90;;;8.20;100.00;100226.72;4134770;28;20033;-75
2023/03/26 01:56:49;;;;;;;26.50;5.13;;;9.00;99.90;;;8.25;100.00;100218.34;4152229;28;20076;-75
2023/03/26 01:59:27;;;;;;;24.35;4.60;;;9.00;99.90;;;8.34;100.00;100206.97;4140625;28;20034;-75
2023/03/26 02:01:58;;;;;;;34.38;5.63;;;9.20;99.90;;;8.55;100.00;100203.97;4152165;28;20073;-75
2023/03/26 02:04:31;;;;;;;21.55;3.92;;;9.30;99.90;;;8.80;100.00;100211.81;4159875;28;20069;-76
2023/03/26 02:07:00;;;;;;;26.80;5.97;;;9.50;99.90;;;8.85;100.00;100206.91;4151119;28;20452;-75
2023/03/26 02:09:07;;;;;;;34.28;6.20;;;9.60;99.90;;;8.88;100.00;100185.56;4124276;28;20042;-75
2023/03/26 02:11:14;;;;;;;31.17;4.63;;;9.70;99.90;;;9.12;100.00;100192.69;4150929;28;20037;-75
2023/03/26 02:13:15;;;;;;;25.05;4.75;;;9.80;99.90;;;9.07;100.00;100199.44;4151116;28;20057;-75
2023/03/26 02:15:16;;;;;;;31.90;3.97;;;9.90;99.90;;;9.14;100.00;100189.94;4151002;28;20051;-75
2023/03/26 02:17:18;;;;;;;25.25;5.35;;;9.90;99.90;;;9.12;100.00;100203.22;4151940;28;20030;-75
2023/03/26 02:19:20;;;;;;;19.25;4.32;;;9.90;99.90;;;9.10;100.00;100202.56;4134852;28;20061;-75
2023/03/26 02:21:24;;;;;;;33.13;5.68;;;9.90;99.90;;;9.12;100.00;100192.69;4134865;28;20041;-75
2023/03/26 02:23:28;;;;;;;26.77;5.35;;;9.90;99.90;;;8.96;100.00;100178.69;4151925;28;20029;-75
2023/03/26 02:25:29;;;;;;;34.72;6.03;;;9.90;99.90;;;9.02;100.00;100172.78;4150859;28;20033;-75
2023/03/26 02:27:30;;;;;;;24.08;4.95;;;9.90;99.90;;;9.12;100.00;100187.44;4160808;28;20030;-75
2023/03/26 02:29:36;;;;;;;22.10;5.10;;;9.90;99.90;;;9.16;100.00;100185.31;4151135;28;20053;-75
2023/03/26 02:31:37;;;;;;;29.08;5.03;;;9.90;99.90;;;9.20;100.00;100181.41;4152090;28;20033;-75
2023/03/26 02:33:39;;;;;;;33.50;6.40;;;10.00;99.90;;;9.13;100.00;100164.59;4152054;28;20512;-75
2023/03/26 02:35:44;;;;;;;27.88;4.22;;;10.00;99.90;;;9.14;100.00;100158.34;4150684;28;20614;-75
2023/03/26 02:37:45;;;;;;;33.72;5.43;;;10.00;99.90;;;9.11;100.00;100162.09;4152150;28;20038;-75
2023/03/26 02:39:46;;;;;;;27.05;5.20;;;10.00;99.90;;;9.05;100.00;100154.06;4150693;28;20052;-75
2023/03/26 02:41:47;;;;;;;25.77;4.82;;;10.00;99.90;;;9.36;100.00;100168.25;4167446;28;20029;-75
2023/03/26 02:43:48;;;;;;;28.25;4.28;;;10.00;99.90;;;9.30;100.00;100168.91;4134531;28;20022;-75
2023/03/26 02:45:49;;;;;;;29.45;4.95;;;10.10;99.90;;;9.21;100.00;100169.88;4152181;28;20026;-75
2023/03/26 02:47:50;;;;;;;25.70;3.80;;;10.10;99.90;;;9.13;100.00;100161.97;4150899;28;20088;-75
2023/03/26 02:49:51;;;;;;;39.90;7.20;;;10.00;99.90;;;9.22;100.00;100166.25;4154490;28;20437;-75
2023/03/26 02:51:55;;;;;;;20.77;5.22;;;10.00;99.90;;;9.12;100.00;100145.34;4155255;28;20030;-75
2023/03/26 02:53:56;;;;;;;32.10;6.32;;;10.00;99.90;;;9.14;100.00;100161.00;4153968;28;20397;-75
2023/03/26 02:55:58;;;;;;;42.58;7.43;;;10.00;99.90;;;9.21;100.00;100159.34;4153997;28;20050;-75
2023/03/26 02:58:00;;;;;;;26.85;5.07;;;10.00;99.90;;;9.47;100.00;100167.94;4143471;28;20537;-75
2023/03/26 03:00:04;;;;;;;31.02;5.15;;;10.10;99.90;;;9.48;100.00;100166.13;4152325;28;20129;-75
2023/03/26 03:02:05;;;;;;;22.92;4.63;;;10.20;99.90;;;9.43;100.00;100159.56;4154102;28;20084;-75
2023/03/26 03:04:07;;;;;;;31.27;5.22;;;10.20;99.90;;;9.31;100.00;100136.34;4154959;28;20026;-75
2023/03/26 03:06:08;;;;;;;28.20;5.10;;;10.20;99.90;;;9.26;100.00;100142.06;4153552;28;20038;-75
2023/03/26 03:08:09;;;;;;;23.50;5.30;;;10.20;99.90;;;9.37;100.00;100140.94;4154422;28;20104;-75
2023/03/26 03:10:12;;;;;;;27.65;5.22;;;10.20;99.90;;;9.36;100.00;100141.94;4170144;28;20064;-75
2023/03/26 03:12:13;;;;;;;31.83;6.23;;;10.20;99.90;;;9.33;100.00;100131.72;4153854;28;20018;-75
2023/03/26 03:14:14;;;;;;;25.52;4.85;;;10.20;99.90;;;9.41;100.00;100137.81;4154072;28;20288;-75
2023/03/26 03:16:15;;;;;;;36.63;7.30;;;10.20;99.90;;;9.45;100.00;100115.47;4153153;28;20501;-75
2023/03/26 03:18:16;;;;;;;32.97;5.97;;;10.30;99.90;;;9.50;100.00;100124.69;4146161;28;20033;-75
2023/03/26 03:20:17;;;;;;;24.20;5.55;;;10.30;99.90;;;9.40;100.00;100109.03;4154673;28;20033;-75
2023/03/26 03:22:18;;;;;;;23.40;4.40;;;10.30;99.90;;;9.52;100.00;100120.91;4153355;28;20030;-75
2023/03/26 03:24:19;;;;;;;28.00;4.30;;;10.30;99.90;;;9.57;100.00;100123.03;4154525;28;20492;-75
2023/03/26 03:26:26;;;;;;;34.95;5.30;;;10.30;99.90;;;9.38;100.00;100090.75;4154716;28;20022;-75
2023/03/26 03:28:27;;;;;;;27.88;4.88;;;10.30;99.90;;;9.55;100.00;100111.84;4154419;28;20434;-75
2023/03/26 03:30:28;;;;;;;22.83;4.97;;;10.30;99.90;;;9.56;100.00;100110.88;4154552;28;20033;-75
2023/03/26 03:32:29;;;;;;;23.55;3.47;;;10.40;99.90;;;9.44;100.00;100105.91;4153071;28;20040;-75
2023/03/26 03:34:30;;;;;;;32.58;4.68;;;10.40;99.90;;;9.49;100.00;100104.59;4170004;28;20033;-75
2023/03/26 03:36:32;;;;;;;26.20;5.32;;;10.30;99.90;;;9.47;100.00;100102.13;4154607;28;20033;-75
2023/03/26 03:38:33;;;;;;;19.30;3.72;;;10.40;99.90;;;9.72;100.00;100130.09;4153030;28;20517;-75
2023/03/26 03:40:34;;;;;;;20.83;3.45;;;10.40;99.90;;;9.51;100.00;100113.97;4154183;28;20026;-75
2023/03/26 03:42:34;;;;;;;18.10;2.58;;;10.40;99.90;;;9.47;100.00;100110.00;4154543;28;20485;-75
2023/03/26 03:44:35;;;;;;;18.45;3.00;;;10.30;99.90;;;9.49;100.00;100128.28;4154510;28;20033;-75
2023/03/26 03:46:36;;;;;;;14.80;3.03;;;10.30;99.90;;;9.21;100.00;100111.97;4154235;28;20030;-75
2023/03/26 03:48:38;;;;;;;12.82;3.20;;;10.20;99.90;;;9.11;100.00;100121.84;4153088;28;20049;-75
2023/03/26 03:50:39;;;;;;;15.75;3.70;;;10.10;99.90;;;9.02;100.00;100117.53;4154347;28;20026;-75
2023/03/26 03:52:40;;;;;;;18.65;3.60;;;10.00;99.90;;;9.09;100.00;100134.31;4152992;28;20029;-75
2023/03/26 03:54:41;;;;;;;20.10;2.92;;;10.00;99.90;;;8.92;100.00;100122.13;4153854;28;20048;-75
2023/03/26 03:56:44;;;;;;;14.50;2.70;;;9.90;99.90;;;8.99;100.00;100134.44;4153878;28;20508;-75
2023/03/26 03:58:46;;;;;;;17.08;3.30;;;9.90;99.90;;;8.97;100.00;100130.34;4153996;28;20025;-75
2023/03/26 04:00:51;;;;;;;17.55;3.03;;;9.90;99.90;;;9.09;100.00;100131.69;4152828;28;20017;-75
2023/03/26 04:02:53;;;;;;;12.38;2.50;;;9.80;99.90;;;8.84;100.00;100121.09;4152709;28;20022;-75
2023/03/26 04:04:56;;;;;;;14.38;2.53;;;9.70;99.90;;;8.76;100.00;100126.34;4153747;28;20099;-75
2023/03/26 04:06:57;;;;;;;14.23;2.63;;;9.70;99.90;;;8.76;100.00;100115.81;4168585;28;20543;-75
2023/03/26 04:08:58;;;;;;;13.18;2.10;;;9.70;99.90;;;8.70;100.00;100124.34;4152709;28;20065;-75
2023/03/26 04:10:59;;;;;;;16.38;3.08;;;9.60;99.90;;;8.69;100.00;100114.78;4153813;28;20026;-75
2023/03/26 04:13:00;;;;;;;17.63;3.15;;;9.60;99.90;;;8.82;100.00;100125.69;4153709;28;20033;-75
2023/03/26 04:15:01;;;;;;;13.13;1.90;;;9.60;99.90;;;8.91;100.00;100126.53;4136589;28;20054;-74
2023/03/26 04:17:04;;;;;;;11.68;2.33;;;9.60;99.90;;;8.78;100.00;100128.81;4151094;28;20037;-75
2023/03/26 04:19:05;;;;;;;10.30;2.78;;;9.60;99.90;;;8.68;100.00;100107.91;4148664;28;20069;-75
2023/03/26 04:21:06;;;;;;;13.18;2.45;;;9.60;99.90;;;8.68;100.00;100120.22;4153782;28;20026;-75
2023/03/26 04:23:12;;;;;;;7.60;1.55;;;9.60;99.90;;;8.77;100.00;100145.56;4152165;28;20022;-75
2023/03/26 04:25:14;;;;;;;16.73;2.40;;;9.60;99.90;;;8.55;100.00;100125.09;4152663;28;20544;-75
2023/03/26 04:27:24;;;;;;;22.15;2.63;;;9.50;99.90;;;8.61;100.00;100135.81;4150532;28;20033;-75
2023/03/26 04:29:26;;;;;;;15.88;2.10;;;9.50;99.90;;;8.66;100.00;100146.66;4139181;28;20592;-75
2023/03/26 04:31:29;;;;;;;8.60;1.92;;;9.50;99.90;;;8.58;100.00;100136.13;4144178;28;20029;-75
2023/03/26 04:33:33;;;;;;;9.63;1.83;;;9.40;99.90;;;8.62;100.00;100145.34;4152276;28;20112;-75
2023/03/26 04:35:34;;;;;;;13.77;2.05;;;9.40;99.90;;;8.43;100.00;100127.19;4150058;28;20504;-75
2023/03/26 04:37:40;;;;;;;17.30;2.38;;;9.40;99.90;;;8.47;100.00;100136.41;4141537;28;20053;-75
2023/03/26 04:39:43;;;;;;;15.65;1.95;;;9.40;99.90;;;8.53;100.00;100127.06;4127718;28;20023;-75
2023/03/26 04:41:44;;;;;;;12.13;2.17;;;9.40;99.90;;;8.57;100.00;100155.50;4152576;28;20101;-75
2023/03/26 04:43:49;;;;;;;14.15;2.65;;;9.40;99.90;;;8.42;100.00;100136.06;4153211;28;20104;-75
2023/03/26 04:45:51;;;;;;;14.00;3.28;;;9.40;99.90;;;8.40;100.00;100139.81;4153354;28;20022;-75
2023/03/26 04:47:51;;;;;;;13.18;2.40;;;9.40;99.90;;;8.48;100.00;100132.81;4144382;28;20113;-75
2023/03/26 04:49:52;;;;;;;10.27;1.98;;;9.40;99.90;;;8.47;100.00;100138.22;4148457;28;20033;-75
2023/03/26 04:51:53;;;;;;;14.65;2.22;;;9.40;99.90;;;8.59;100.00;100157.97;4153087;28;20030;-75
2023/03/26 04:53:58;;;;;;;16.63;2.10;;;9.40;99.90;;;8.52;100.00;100147.28;4151975;28;20033;-75
2023/03/26 04:56:15;;;;;;;13.25;2.10;;;9.50;99.90;;;8.52;100.00;100157.78;4151933;28;20033;-75
2023/03/26 04:58:16;;;;;;;14.10;3.20;;;9.40;99.90;;;8.44;100.00;100162.19;4157501;28;20111;-75
2023/03/26 05:00:19;;;;;;;14.93;2.78;;;9.30;99.90;;;8.38;100.00;100147.88;4168573;28;20017;-75
2023/03/26 05:02:20;;;;;;;16.45;2.60;;;9.30;99.90;;;8.16;100.00;100137.84;4145671;28;20077;-75
2023/03/26 05:04:20;;;;;;;11.52;2.25;;;9.20;99.90;;;8.02;100.00;100143.66;4147088;28;20018;-75
2023/03/26 05:06:21;;;;;;;8.95;2.38;;;9.00;99.90;;;7.86;100.00;100143.53;4152951;28;20022;-75
2023/03/26 05:08:22;;;;;;;13.27;2.97;;;8.90;99.90;;;7.80;100.00;100152.84;4152940;28;20029;-75
2023/03/26 05:10:23;;;;;;;17.08;3.25;;;8.80;99.90;;;7.62;100.00;100152.06;4151926;28;20038;-75
2023/03/26 05:12:24;;;;;;;13.43;3.80;;;8.70;99.90;;;7.55;100.00;100164.97;4152554;28;20136;-75
2023/03/26 05:14:25;;;;;;;14.32;2.33;;;8.60;99.90;;;7.58;100.00;100174.34;4153029;28;20046;-75
2023/03/26 05:16:26;;;;;;;11.43;2.58;;;8.50;99.90;;;7.50;100.00;100164.59;4152602;28;20026;-75
2023/03/26 05:18:27;;;;;;;21.85;3.28;;;8.50;99.90;;;7.51;100.00;100174.13;4152845;28;20104;-75
2023/03/26 05:20:30;;;;;;;13.45;2.88;;;8.40;99.90;;;7.40;100.00;100169.09;4151698;28;20026;-75
2023/03/26 05:22:31;;;;;;;18.15;2.22;;;8.40;99.90;;;7.36;100.00;100172.16;4152446;28;20489;-74
2023/03/26 05:24:31;;;;;;;13.05;2.08;;;8.30;99.90;;;7.44;100.00;100175.69;4152385;28;20025;-74
2023/03/26 05:26:33;;;;;;;14.63;2.80;;;8.40;99.90;;;7.61;100.00;100181.91;4151646;28;20030;-75
2023/03/26 05:28:34;;;;;;;15.27;2.08;;;8.50;99.90;;;7.69;100.00;100172.31;4152690;28;20493;-75
2023/03/26 05:30:35;;;;;;;16.05;3.08;;;8.60;99.90;;;7.70;100.00;100167.91;4151576;28;20041;-75
2023/03/26 05:32:36;;;;;;;11.60;1.50;;;8.60;99.90;;;7.92;100.00;100191.03;4152330;28;20078;-75
2023/03/26 05:34:39;;;;;;;15.05;2.92;;;8.70;99.90;;;7.94;100.00;100183.84;4152695;28;20044;-75
2023/03/26 05:36:41;;;;;;;18.80;2.63;;;8.80;99.90;;;7.89;100.00;100174.75;4151253;28;20026;-75
2023/03/26 05:38:46;;;;;;;13.85;3.00;;;8.80;99.90;;;8.01;100.00;100194.53;4151011;28;20038;-75
2023/03/26 05:40:47;;;;;;;13.32;2.15;;;8.80;99.90;;;8.09;100.00;100176.22;4151684;28;20025;-75
2023/03/26 05:42:50;;;;;;;18.17;4.60;;;8.90;99.90;;;8.14;100.00;100189.72;4152597;28;20406;-75
2023/03/26 05:44:51;;;;;;;16.38;2.70;;;8.90;99.90;;;7.96;100.00;100173.16;4167763;28;20048;-75
2023/03/26 05:46:51;;;;;;;15.93;3.65;;;8.90;99.90;;;7.96;100.00;100179.25;4152476;28;20033;-75
2023/03/26 05:48:52;;;;;;;9.50;2.15;;;8.90;99.90;;;7.99;100.00;100170.25;4154918;28;20583;-75
2023/03/26 05:50:56;;;;;;;13.88;2.13;;;8.90;99.90;;;7.85;100.00;100157.66;4145648;28;20026;-75
2023/03/26 05:52:57;;;;;;;11.57;2.53;;;8.80;99.90;;;7.92;100.00;100185.78;4135123;28;20030;-75
2023/03/26 05:54:58;;;;;;;10.65;1.83;;;8.80;99.90;;;7.73;100.00;100185.97;4148787;28;20037;-75
2023/03/26 05:56:59;;;;;;;12.02;2.45;;;8.70;99.90;;;7.66;100.00;100180.50;4152417;28;20026;-75
2023/03/26 05:59:00;;;;;;;14.32;2.10;;;8.60;99.90;;;7.56;100.00;100179.72;4140908;28;20532;-75
2023/03/26 06:01:08;;;;;;;15.07;2.28;;;8.50;99.90;;;7.36;100.00;100146.75;4143872;28;20026;-75
2023/03/26 06:03:11;;;;;;;13.77;3.00;;;8.50;99.90;;;7.43;100.00;100152.22;4138381;28;20026;-75
2023/03/26 06:05:12;;;;;;;15.52;2.75;;;8.40;99.90;;;7.33;100.00;100154.09;4152441;28;20073;-75
2023/03/26 06:07:13;;;;;;;17.40;3.00;;;8.40;99.90;;;7.34;100.00;100164.44;4151238;28;20033;-75
2023/03/26 06:09:13;;;;;;;16.13;3.90;;;8.30;99.90;;;7.29;100.00;100156.19;4146494;28;20029;-75
2023/03/26 06:11:16;;;;;;;17.48;2.03;;;8.20;99.90;;;7.32;100.00;100166.38;4167164;28;20032;-75
2023/03/26 06:13:17;;;;;;;14.10;2.05;;;8.20;99.90;;;7.23;100.00;100164.66;4151400;28;20022;-76
2023/03/26 06:15:18;;;;;;;13.88;1.80;;;8.20;99.90;;;7.26;100.00;100163.56;4151011;28;20113;-75
2023/03/26 06:17:19;;;;;;;17.63;1.77;;;8.10;99.90;;;7.22;100.00;100179.59;4152068;28;20033;-75
2023/03/26 06:19:20;;;;;;;9.23;1.73;;;8.10;99.90;;;7.08;100.00;100161.72;4151060;28;20026;-75
2023/03/26 06:21:21;;;;;;;16.48;3.22;;;8.10;99.90;;;7.13;100.00;100174.41;4152291;28;20026;-75
2023/03/26 06:23:22;;;;;;;10.10;1.60;;;8.10;99.90;;;7.16;100.00;100180.19;4152270;28;20482;-75
2023/03/26 06:25:23;;;;;;;14.98;2.28;;;8.10;99.90;;;7.26;100.00;100177.47;4154307;28;20072;-75
2023/03/26 06:27:24;;;;;;;17.40;2.20;;;8.20;99.90;;;7.56;100.00;100195.47;4169132;28;20029;-75
2023/03/26 06:29:25;;;;;;;14.60;2.05;;;8.30;99.90;;;7.61;100.00;100179.28;4155249;28;20053;-75
2023/03/26 06:31:26;;;;;;;13.10;2.40;;;8.50;99.90;;;7.76;100.00;100165.47;4154136;28;20116;-74
2023/03/26 06:33:28;;;;;;;16.08;2.20;;;8.60;99.90;;;7.98;100.00;100179.09;4149486;28;20026;-74
2023/03/26 06:35:30;;;;;;;15.73;2.83;;;8.70;99.90;;;7.93;100.00;100160.34;4154038;28;20034;-75
2023/03/26 06:37:31;;;;;;;13.60;2.45;;;8.80;99.90;;;8.03;100.00;100161.09;4151204;28;20030;-75
2023/03/26 06:39:32;;;;;;;13.90;2.55;;;8.90;99.90;;;8.12;100.00;100154.91;4144888;28;20021;-75
2023/03/26 06:41:34;;;;;;;17.75;3.65;;;9.00;99.90;;;8.01;100.00;100155.13;4147775;28;20159;-75
2023/03/26 06:43:36;;;;;;;16.30;2.80;;;8.90;99.90;;;8.04;100.00;100179.31;4153842;28;20034;-75
2023/03/26 06:45:37;;;;;;;14.40;3.28;;;8.90;99.90;;;8.01;100.00;100178.78;4155227;28;20080;-75
2023/03/26 06:47:38;;;;;;;13.90;2.70;;;8.80;99.90;;;7.89;100.00;100154.56;4149938;28;20034;-75
2023/03/26 06:49:40;;;;;;;22.42;3.40;;;8.80;99.90;;;7.94;100.00;100164.63;4164221;28;20033;-75
2023/03/26 06:51:42;;;;;;;15.23;2.75;;;8.80;99.90;;;7.98;100.00;100171.22;4153823;28;20108;-75
2023/03/26 06:53:43;;;;;;;15.02;3.03;;;8.80;99.90;;;8.08;100.00;100179.81;4154898;28;20109;-75
2023/03/26 06:55:44;;;;;;;18.23;3.92;;;8.80;99.90;;;8.05;100.00;100164.38;4154070;28;20088;-75
2023/03/26 06:57:50;;;;;;;18.30;3.63;;;8.90;99.90;;;8.20;100.00;100170.72;4170113;28;20029;-75
2023/03/26 06:59:51;;;;;;;21.40;4.47;;;9.00;99.90;;;8.56;100.00;100179.31;4154994;28;20034;-75
2023/03/26 07:01:52;;;;;;;27.33;3.28;;;9.20;99.90;;;8.75;100.00;100168.59;4155094;28;20106;-75
2023/03/26 07:03:52;;;;;;;19.35;4.25;;;9.50;99.90;;;8.88;100.00;100174.22;4154946;28;20030;-75
2023/03/26 07:05:53;;;;;;;24.45;3.45;;;9.60;99.90;;;8.98;100.00;100187.22;4154834;28;20056;-75
2023/03/26 07:07:54;;;;;;;23.95;4.00;;;9.70;99.90;;;8.82;100.00;100167.78;4153363;28;20040;-75
2023/03/26 07:09:55;;;;;;;27.90;4.25;;;9.70;99.90;;;8.84;100.00;100157.13;4140518;28;20018;-75
2023/03/26 07:11:57;;;;;;;25.45;4.82;;;9.70;99.90;;;8.96;100.00;100173.44;4170052;28;20029;-75
2023/03/26 07:13:58;;;;;;;25.17;4.95;;;9.70;99.90;;;8.82;100.00;100154.63;4137246;28;20363;-75
2023/03/26 07:15:59;;;;;;;17.98;4.15;;;9.70;99.90;;;8.96;100.00;100166.34;4169798;28;20037;-75
2023/03/26 07:18:00;;;;;;;20.85;3.90;;;9.80;99.90;;;9.08;100.00;100156.38;4154689;28;20030;-75
2023/03/26 07:20:01;;;;;;;17.83;3.15;;;9.90;99.90;;;9.22;100.00;100167.09;4154856;28;20022;-75
2023/03/26 07:22:02;;;;;;;27.15;3.80;;;10.00;99.90;;;9.28;100.00;100179.59;4153693;28;20413;-75
2023/03/26 07:24:04;;;;;;;17.25;4.03;;;10.00;99.90;;;9.26;100.00;100178.09;4154453;28;20022;-74
2023/03/26 07:26:50;;;;;;;20.30;3.80;;;10.00;99.90;;;9.19;100.00;100167.41;4153432;28;20412;-75
2023/03/26 07:29:11;;;;;;;18.08;4.25;;;10.10;99.90;;;9.31;100.00;100184.53;4149112;28;20022;-75
2023/03/26 07:31:25;;;;;;;21.92;4.50;;;10.10;99.90;;;9.38;100.00;100192.59;4141994;28;20383;-75
2023/03/26 07:33:33;;;;;;;30.80;5.53;;;10.20;99.90;;;9.73;100.00;100194.97;4154570;28;20026;-75
2023/03/26 07:36:16;;;;;;;27.00;4.85;;;10.40;99.90;;;10.09;100.00;100178.81;4152728;28;20507;-75
2023/03/26 07:39:11;;;;;;;11.73;3.00;;;10.70;99.90;;;10.29;100.00;100185.41;4154035;28;20034;-75
2023/03/26 07:41:49;;;;;;;10.80;3.33;;;11.00;99.90;;;10.15;100.00;100142.13;4152417;28;20045;-75
2023/03/26 07:44:18;;;;;;;16.10;2.83;;;11.00;99.90;;;10.10;100.00;100170.72;4153214;28;20452;-75
2023/03/26 07:46:26;;;;;;;17.60;2.47;;;10.90;99.90;;;9.99;100.00;100165.81;4169352;28;20025;-75
2023/03/26 07:48:42;;;;;;;14.05;2.42;;;10.90;99.90;;;10.00;100.00;100162.19;4139859;28;20058;-75
2023/03/26 07:50:44;;;;;;;20.88;4.72;;;10.80;99.90;;;10.05;100.00;100161.69;4153983;28;20420;-75
2023/03/26 07:52:45;;;;;;;20.65;3.55;;;10.80;99.90;;;10.05;100.00;100159.03;4154175;28;20061;-75
2023/03/26 07:54:46;;;;;;;21.23;3.15;;;10.90;99.90;;;10.21;100.00;100151.16;4153934;28;20390;-75
2023/03/26 07:57:02;;;;;;;22.40;3.63;;;10.90;99.90;;;10.30;100.00;100150.16;4152629;28;20030;-75
2023/03/26 07:59:48;;;;;;;23.58;3.30;;;11.00;99.90;;;10.34;100.00;100159.34;4142979;28;20018;-75
2023/03/26 08:02:22;;;;;;;15.43;2.65;;;11.10;99.90;;;10.50;100.00;100165.41;4144135;28;20034;-75
2023/03/26 08:04:36;;;;;;;15.32;3.20;;;11.20;99.90;;;10.60;100.00;100152.03;4142226;28;20045;-75
2023/03/26 08:06:42;;;;;;;24.00;3.50;;;11.30;99.90;;;10.57;100.00;100139.19;4153445;28;20026;-75
2023/03/26 08:09:14;;;;;;;26.50;4.47;;;11.40;99.90;;;10.80;100.00;100140.09;4130312;28;20033;-75
2023/03/26 08:11:38;;;;;;;22.35;3.90;;;11.60;99.90;;;11.00;100.00;100143.94;4136143;28;20030;-75
2023/03/26 08:13:59;;;;;;;19.65;3.40;;;11.80;99.90;;;11.25;100.00;100143.78;4147371;28;20034;-75
2023/03/26 08:16:23;;;;;;;19.50;3.97;;;11.90;99.90;;;11.35;100.00;100139.13;4152546;28;20049;-75
2023/03/26 08:19:04;;;;;;;16.13;3.67;;;12.10;99.90;;;11.52;100.00;100130.06;4152643;28;20030;-75
2023/03/26 08:21:32;;;;;;;17.88;3.10;;;12.20;99.90;;;11.61;100.00;100123.72;4150202;28;20483;-75
2023/03/26 08:23:53;;;;;;;23.27;3.90;;;12.40;99.90;;;11.79;100.00;100124.28;4152272;28;20057;-75
2023/03/26 08:26:30;;;;;;;20.27;4.38;;;12.60;99.90;;;11.74;98.82;100123.97;4153633;28;20064;-75
2023/03/26 08:28:56;;;;;;;20.23;3.72;;;12.60;99.90;;;11.73;95.40;100106.47;4120917;28;20034;-75
2023/03/26 08:31:01;;;;;;;21.65;4.30;;;12.70;99.90;;;11.96;96.10;100117.00;4138318;28;20113;-75
2023/03/26 08:33:16;;;;;;;24.52;4.53;;;12.80;99.90;;;12.48;96.37;100112.47;4152239;28;20022;-75
2023/03/26 08:35:17;;;;;;;23.52;4.05;;;13.20;99.90;;;12.86;94.60;100099.91;4146928;28;20429;-75
2023/03/26 08:37:18;;;;;;;18.23;3.28;;;13.50;99.90;;;13.21;93.91;100109.69;4151503;28;20021;-75
2023/03/26 08:39:21;;;;;;;21.42;4.28;;;13.80;99.90;;;13.38;93.52;100099.66;4152283;28;20113;-75
2023/03/26 08:42:23;;;;;;;25.13;6.18;;;14.10;99.90;;;13.48;91.45;100115.25;4152340;28;20026;-75